sensor_id;sensor_type;location;lat;lon;timestamp;pressure;altitude;pressure_sealevel;temperature;humidity
66560;BME280;53413;49.878;8.142;2023-05-22T00:01:12;99591.75;;;14.42;100.00
66560;BME280;53413;49.878;8.142;2023-05-22T00:03:39;99592.69;;;14.41;100.00
66560;BME280;53413;49.878;8.142;2023-05-22T00:06:05;99588.38;;;14.40;100.00
66560;BME280;53413;49.878;8.142;2023-05-22T00:08:34;99596.56;;;14.36;100.00
66560;BME280;53413;49.878;8.142;2023-05-22T00:11:00;99589.59;;;14.35;100.00
66560;BME280;53413;49.878;8.142;2023-05-22T00:13:25;99587.06;;;14.33;100.00
66560;BME280;53413;49.878;8.142;2023-05-22T00:15:50;99583.66;;;14.31;100.00
66560;BME280;53413;49.878;8.142;2023-05-22T00:18:16;99583.84;;;14.28;100.00
66560;BME280;53413;49.878;8.142;2023-05-22T00:20:41;99590.25;;;14.24;100.00
66560;BME280;53413;49.878;8.142;2023-05-22T00:23:10;99586.84;;;14.22;100.00
66560;BME280;53413;49.878;8.142;2023-05-22T00:25:36;99592.31;;;14.19;100.00
66560;BME280;53413;49.878;8.142;2023-05-22T00:28:02;99589.78;;;14.17;100.00
66560;BME280;53413;49.878;8.142;2023-05-22T00:30:27;99586.28;;;14.16;100.00
66560;BME280;53413;49.878;8.142;2023-05-22T00:32:53;99593.41;;;14.14;100.00
66560;BME280;53413;49.878;8.142;2023-05-22T00:35:18;99591.72;;;14.13;100.00
66560;BME280;53413;49.878;8.142;2023-05-22T00:37:43;99577.81;;;14.11;100.00
66560;BME280;53413;49.878;8.142;2023-05-22T00:40:11;99575.34;;;14.08;100.00
66560;BME280;53413;49.878;8.142;2023-05-22T00:42:36;99578.00;;;14.08;100.00
66560;BME280;53413;49.878;8.142;2023-05-22T00:45:03;99578.94;;;14.07;100.00
66560;BME280;53413;49.878;8.142;2023-05-22T00:47:28;99580.91;;;14.04;100.00
66560;BME280;53413;49.878;8.142;2023-05-22T00:49:54;99581.94;;;14.01;100.00
66560;BME280;53413;49.878;8.142;2023-05-22T00:52:19;99589.09;;;13.99;100.00
66560;BME280;53413;49.878;8.142;2023-05-22T00:54:46;99585.59;;;13.98;100.00
66560;BME280;53413;49.878;8.142;2023-05-22T00:57:12;99590.09;;;13.96;100.00
66560;BME280;53413;49.878;8.142;2023-05-22T00:59:38;99582.28;;;13.95;100.00
66560;BME280;53413;49.878;8.142;2023-05-22T01:02:03;99583.31;;;13.92;100.00
66560;BME280;53413;49.878;8.142;2023-05-22T01:04:29;99589.59;;;13.90;100.00
66560;BME280;53413;49.878;8.142;2023-05-22T01:06:57;99580.22;;;13.85;100.00
66560;BME280;53413;49.878;8.142;2023-05-22T01:09:23;99591.69;;;13.84;100.00
66560;BME280;53413;49.878;8.142;2023-05-22T01:12:05;99588.28;;;13.82;100.00
66560;BME280;53413;49.878;8.142;2023-05-22T01:14:54;99592.78;;;13.80;100.00
66560;BME280;53413;49.878;8.142;2023-05-22T01:17:33;99599.00;;;13.79;100.00
66560;BME280;53413;49.878;8.142;2023-05-22T01:31:33;99589.16;;;13.83;100.00
66560;BME280;53413;49.878;8.142;2023-05-22T01:34:02;99589.97;;;13.83;100.00
66560;BME280;53413;49.878;8.142;2023-05-22T01:36:30;99595.25;;;13.83;100.00
66560;BME280;53413;49.878;8.142;2023-05-22T01:38:59;99595.41;;;13.80;100.00
66560;BME280;53413;49.878;8.142;2023-05-22T01:41:27;99599.00;;;13.79;100.00
66560;BME280;53413;49.878;8.142;2023-05-22T01:43:53;99601.72;;;13.78;100.00
66560;BME280;53413;49.878;8.142;2023-05-22T01:46:18;99595.03;;;13.72;100.00
66560;BME280;53413;49.878;8.142;2023-05-22T01:48:44;99594.16;;;13.72;100.00
66560;BME280;53413;49.878;8.142;2023-05-22T01:56:54;99588.22;;;13.68;100.00
66560;BME280;53413;49.878;8.142;2023-05-22T02:02:09;99591.81;;;13.67;100.00
66560;BME280;53413;49.878;8.142;2023-05-22T02:04:38;99591.06;;;13.65;100.00
66560;BME280;53413;49.878;8.142;2023-05-22T02:07:06;99592.00;;;13.64;100.00
66560;BME280;53413;49.878;8.142;2023-05-22T02:09:32;99584.09;;;13.64;100.00
66560;BME280;53413;49.878;8.142;2023-05-22T02:11:59;99590.38;;;13.61;100.00
66560;BME280;53413;49.878;8.142;2023-05-22T02:14:25;99593.75;;;13.63;100.00
66560;BME280;53413;49.878;8.142;2023-05-22T02:16:51;99585.09;;;13.61;100.00
66560;BME280;53413;49.878;8.142;2023-05-22T02:19:16;99594.81;;;13.61;100.00
66560;BME280;53413;49.878;8.142;2023-05-22T02:21:42;99601.94;;;13.59;100.00
66560;BME280;53413;49.878;8.142;2023-05-22T02:24:08;99591.56;;;13.55;100.00
66560;BME280;53413;49.878;8.142;2023-05-22T02:26:34;99600.59;;;13.51;100.00
66560;BME280;53413;49.878;8.142;2023-05-22T02:28:59;99597.19;;;13.49;100.00
66560;BME280;53413;49.878;8.142;2023-05-22T02:31:25;99601.59;;;13.49;100.00
66560;BME280;53413;49.878;8.142;2023-05-22T02:33:50;99594.63;;;13.48;100.00
66560;BME280;53413;49.878;8.142;2023-05-22T02:36:16;99589.63;;;13.43;100.00
66560;BME280;53413;49.878;8.142;2023-05-22T02:38:41;99592.47;;;13.40;100.00
66560;BME280;53413;49.878;8.142;2023-05-22T02:41:07;99590.03;;;13.35;100.00
66560;BME280;53413;49.878;8.142;2023-05-22T02:43:32;99590.22;;;13.32;100.00
66560;BME280;53413;49.878;8.142;2023-05-22T02:45:57;99586.94;;;13.29;100.00
66560;BME280;53413;49.878;8.142;2023-05-22T02:48:23;99584.53;;;13.24;100.00
66560;BME280;53413;49.878;8.142;2023-05-22T02:50:48;99592.53;;;13.22;100.00
66560;BME280;53413;49.878;8.142;2023-05-22T02:53:14;99586.66;;;13.17;100.00
66560;BME280;53413;49.878;8.142;2023-05-22T02:55:41;99586.91;;;13.13;100.00
66560;BME280;53413;49.878;8.142;2023-05-22T02:58:06;99587.03;;;13.11;100.00
66560;BME280;53413;49.878;8.142;2023-05-22T03:00:39;99583.78;;;13.06;100.00
66560;BME280;53413;49.878;8.142;2023-05-22T03:03:04;99582.13;;;13.05;100.00
66560;BME280;53413;49.878;8.142;2023-05-22T03:05:30;99592.69;;;13.03;100.00
66560;BME280;53413;49.878;8.142;2023-05-22T03:07:57;99587.53;;;13.02;100.00
66560;BME280;53413;49.878;8.142;2023-05-22T03:10:22;99591.09;;;13.01;100.00
66560;BME280;53413;49.878;8.142;2023-05-22T03:12:48;99593.78;;;12.99;100.00
66560;BME280;53413;49.878;8.142;2023-05-22T03:15:16;99593.78;;;12.99;100.00
66560;BME280;53413;49.878;8.142;2023-05-22T03:17:41;99597.38;;;12.98;100.00
66560;BME280;53413;49.878;8.142;2023-05-22T03:20:07;99595.34;;;13.03;100.00
66560;BME280;53413;49.878;8.142;2023-05-22T03:22:33;99597.13;;;13.03;100.00
66560;BME280;53413;49.878;8.142;2023-05-22T03:24:58;99592.78;;;13.02;100.00
66560;BME280;53413;49.878;8.142;2023-05-22T03:27:23;99592.78;;;13.02;100.00
66560;BME280;53413;49.878;8.142;2023-05-22T03:29:49;99597.13;;;13.03;100.00
66560;BME280;53413;49.878;8.142;2023-05-22T03:32:14;99592.69;;;13.03;100.00
66560;BME280;53413;49.878;8.142;2023-05-22T03:34:40;99588.38;;;13.02;100.00
66560;BME280;53413;49.878;8.142;2023-05-22T03:37:05;99593.56;;;13.04;100.00
66560;BME280;53413;49.878;8.142;2023-05-22T03:39:30;99602.19;;;13.06;100.00
66560;BME280;53413;49.878;8.142;2023-05-22T03:41:56;99598.63;;;13.07;100.00
66560;BME280;53413;49.878;8.142;2023-05-22T03:44:21;99602.81;;;13.11;100.00
66560;BME280;53413;49.878;8.142;2023-05-22T03:46:46;99598.22;;;13.15;100.00
66560;BME280;53413;49.878;8.142;2023-05-22T03:49:12;99595.31;;;13.19;100.00
66560;BME280;53413;49.878;8.142;2023-05-22T03:51:37;99597.69;;;13.24;100.00
66560;BME280;53413;49.878;8.142;2023-05-22T03:54:02;99597.47;;;13.29;100.00
66560;BME280;53413;49.878;8.142;2023-05-22T03:56:28;99594.56;;;13.33;100.00
66560;BME280;53413;49.878;8.142;2023-05-22T03:58:53;99595.09;;;13.40;100.00
66560;BME280;53413;49.878;8.142;2023-05-22T04:01:18;99595.66;;;13.45;100.00
66560;BME280;53413;49.878;8.142;2023-05-22T04:03:44;99589.13;;;13.52;100.00
66560;BME280;53413;49.878;8.142;2023-05-22T04:06:10;99584.28;;;13.61;100.00
66560;BME280;53413;49.878;8.142;2023-05-22T04:08:38;99592.66;;;13.67;100.00
66560;BME280;53413;49.878;8.142;2023-05-22T04:11:03;99589.38;;;13.78;100.00
66560;BME280;53413;49.878;8.142;2023-05-22T04:13:30;99597.59;;;13.88;100.00
66560;BME280;53413;49.878;8.142;2023-05-22T04:15:55;99591.72;;;13.99;100.00
66560;BME280;53413;49.878;8.142;2023-05-22T04:18:21;99584.97;;;14.09;100.00
66560;BME280;53413;49.878;8.142;2023-05-22T04:20:46;99591.19;;;14.23;100.00
66560;BME280;53413;49.878;8.142;2023-05-22T04:23:11;99589.59;;;14.35;100.00
66560;BME280;53413;49.878;8.142;2023-05-22T04:25:37;99592.22;;;14.49;100.00
66560;BME280;53413;49.878;8.142;2023-05-22T04:28:02;99588.72;;;14.63;100.00
66560;BME280;53413;49.878;8.142;2023-05-22T04:30:29;99592.25;;;14.78;100.00
66560;BME280;53413;49.878;8.142;2023-05-22T04:32:58;99594.84;;;14.92;100.00
66560;BME280;53413;49.878;8.142;2023-05-22T04:35:24;99595.69;;;15.07;100.00
66560;BME280;53413;49.878;8.142;2023-05-22T04:37:49;99607.06;;;15.22;100.00
66560;BME280;53413;49.878;8.142;2023-05-22T04:40:14;99602.75;;;15.34;100.00
66560;BME280;53413;49.878;8.142;2023-05-22T04:42:40;99602.72;;;15.49;100.00
66560;BME280;53413;49.878;8.142;2023-05-22T04:45:09;99602.16;;;15.71;100.00
66560;BME280;53413;49.878;8.142;2023-05-22T04:47:34;99598.22;;;15.91;100.00
66560;BME280;53413;49.878;8.142;2023-05-22T04:50:02;99610.94;;;16.12;100.00
66560;BME280;53413;49.878;8.142;2023-05-22T04:52:28;99601.72;;;16.30;100.00
66560;BME280;53413;49.878;8.142;2023-05-22T04:54:53;99608.19;;;16.52;100.00
66560;BME280;53413;49.878;8.142;2023-05-22T04:57:20;99604.78;;;16.76;100.00
66560;BME280;53413;49.878;8.142;2023-05-22T04:59:46;99602.34;;;16.99;100.00
66560;BME280;53413;49.878;8.142;2023-05-22T05:02:12;99606.81;;;17.22;100.00
66560;BME280;53413;49.878;8.142;2023-05-22T05:04:37;99606.31;;;17.42;100.00
66560;BME280;53413;49.878;8.142;2023-05-22T05:07:03;99608.09;;;17.65;100.00
66560;BME280;53413;49.878;8.142;2023-05-22T05:09:30;99606.28;;;17.90;100.00
66560;BME280;53413;49.878;8.142;2023-05-22T05:11:55;99607.66;;;18.07;100.00
66560;BME280;53413;49.878;8.142;2023-05-22T05:14:21;99606.63;;;18.33;100.00
66560;BME280;53413;49.878;8.142;2023-05-22T05:16:46;99608.94;;;18.60;100.00
66560;BME280;53413;49.878;8.142;2023-05-22T05:19:11;99603.59;;;18.83;100.00
66560;BME280;53413;49.878;8.142;2023-05-22T05:21:38;99599.28;;;19.04;100.00
66560;BME280;53413;49.878;8.142;2023-05-22T05:24:04;99604.00;;;19.45;100.00
66560;BME280;53413;49.878;8.142;2023-05-22T05:26:30;99607.03;;;19.73;100.00
66560;BME280;53413;49.878;8.142;2023-05-22T05:28:55;99602.75;;;19.93;100.00
66560;BME280;53413;49.878;8.142;2023-05-22T05:31:21;99607.06;;;20.15;100.00
66560;BME280;53413;49.878;8.142;2023-05-22T05:33:46;99600.19;;;20.34;100.00
66560;BME280;53413;49.878;8.142;2023-05-22T05:36:13;99602.84;;;20.65;100.00
66560;BME280;53413;49.878;8.142;2023-05-22T05:38:38;99603.88;;;21.04;100.00
66560;BME280;53413;49.878;8.142;2023-05-22T05:41:03;99607.31;;;21.56;100.00
66560;BME280;53413;49.878;8.142;2023-05-22T05:43:29;99615.41;;;22.23;100.00
66560;BME280;53413;49.878;8.142;2023-05-22T05:45:54;99605.56;;;24.70;99.63
66560;BME280;53413;49.878;8.142;2023-05-22T05:48:22;99605.75;;;27.63;79.56
66560;BME280;53413;49.878;8.142;2023-05-22T05:50:47;99612.81;;;29.59;67.45
66560;BME280;53413;49.878;8.142;2023-05-22T05:53:13;99612.72;;;31.63;59.05
66560;BME280;53413;49.878;8.142;2023-05-22T05:55:39;99623.22;;;32.99;53.25
66560;BME280;53413;49.878;8.142;2023-05-22T05:58:04;99625.75;;;33.97;49.92
66560;BME280;53413;49.878;8.142;2023-05-22T06:00:29;99633.03;;;34.47;46.40
66560;BME280;53413;49.878;8.142;2023-05-22T06:02:55;99637.06;;;35.30;45.38
66560;BME280;53413;49.878;8.142;2023-05-22T06:05:21;99629.50;;;35.33;43.27
66560;BME280;53413;49.878;8.142;2023-05-22T06:07:47;99634.47;;;35.66;43.44
66560;BME280;53413;49.878;8.142;2023-05-22T06:10:13;99632.31;;;36.11;42.41
66560;BME280;53413;49.878;8.142;2023-05-22T06:12:38;99630.47;;;35.93;41.11
66560;BME280;53413;49.878;8.142;2023-05-22T06:15:05;99625.06;;;36.52;41.23
66560;BME280;53413;49.878;8.142;2023-05-22T06:17:31;99622.63;;;36.79;40.82
66560;BME280;53413;49.878;8.142;2023-05-22T06:19:57;99624.44;;;37.15;40.00
66560;BME280;53413;49.878;8.142;2023-05-22T06:22:23;99625.97;;;38.02;38.70
66560;BME280;53413;49.878;8.142;2023-05-22T06:24:50;99621.63;;;39.07;35.99
66560;BME280;53413;49.878;8.142;2023-05-22T06:27:18;99621.13;;;40.03;34.89
66560;BME280;53413;49.878;8.142;2023-05-22T06:29:44;99624.00;;;40.19;34.64
66560;BME280;53413;49.878;8.142;2023-05-22T06:32:09;99619.25;;;40.57;33.41
66560;BME280;53413;49.878;8.142;2023-05-22T06:34:34;99634.25;;;40.92;32.84
66560;BME280;53413;49.878;8.142;2023-05-22T06:37:00;99632.16;;;41.30;32.44
66560;BME280;53413;49.878;8.142;2023-05-22T06:39:27;99626.69;;;41.82;31.87
66560;BME280;53413;49.878;8.142;2023-05-22T06:41:53;99631.09;;;41.73;30.83
66560;BME280;53413;49.878;8.142;2023-05-22T06:44:18;99631.94;;;41.68;31.52
66560;BME280;53413;49.878;8.142;2023-05-22T06:46:44;99623.94;;;41.87;30.55
66560;BME280;53413;49.878;8.142;2023-05-22T06:49:09;99632.75;;;42.10;30.16
66560;BME280;53413;49.878;8.142;2023-05-22T06:51:35;99627.72;;;42.48;30.22
66560;BME280;53413;49.878;8.142;2023-05-22T06:54:00;99629.78;;;42.87;29.18
66560;BME280;53413;49.878;8.142;2023-05-22T06:56:27;99624.69;;;43.50;27.52
66560;BME280;53413;49.878;8.142;2023-05-22T06:58:52;99633.25;;;43.83;27.28
66560;BME280;53413;49.878;8.142;2023-05-22T07:01:18;99632.41;;;44.41;27.06
66560;BME280;53413;49.878;8.142;2023-05-22T07:03:43;99632.22;;;45.00;26.29
66560;BME280;53413;49.878;8.142;2023-05-22T07:06:08;99633.22;;;44.66;26.54
66560;BME280;53413;49.878;8.142;2023-05-22T07:08:34;99624.34;;;44.88;26.53
66560;BME280;53413;49.878;8.142;2023-05-22T07:10:59;99621.59;;;45.27;25.81
66560;BME280;53413;49.878;8.142;2023-05-22T07:13:26;99628.63;;;45.00;25.97
66560;BME280;53413;49.878;8.142;2023-05-22T07:15:52;99624.66;;;43.85;26.77
66560;BME280;53413;49.878;8.142;2023-05-22T07:18:18;99624.34;;;42.61;28.16
66560;BME280;53413;49.878;8.142;2023-05-22T07:20:43;99631.66;;;41.59;29.51
66560;BME280;53413;49.878;8.142;2023-05-22T07:23:09;99632.16;;;41.35;28.93
66560;BME280;53413;49.878;8.142;2023-05-22T07:25:34;99627.78;;;41.81;29.11
66560;BME280;53413;49.878;8.142;2023-05-22T07:28:00;99631.03;;;42.29;28.41
66560;BME280;53413;49.878;8.142;2023-05-22T07:30:30;99630.00;;;41.99;27.97
66560;BME280;53413;49.878;8.142;2023-05-22T07:32:56;99629.16;;;42.04;27.79
66560;BME280;53413;49.878;8.142;2023-05-22T07:35:21;99627.41;;;42.55;27.59
66560;BME280;53413;49.878;8.142;2023-05-22T07:37:46;99626.94;;;42.98;27.19
66560;BME280;53413;49.878;8.142;2023-05-22T07:40:12;99627.44;;;43.10;26.54
66560;BME280;53413;49.878;8.142;2023-05-22T07:42:37;99636.53;;;43.50;26.77
66560;BME280;53413;49.878;8.142;2023-05-22T07:45:03;99628.13;;;42.86;27.11
66560;BME280;53413;49.878;8.142;2023-05-22T07:47:28;99629.25;;;42.75;26.71
66560;BME280;53413;49.878;8.142;2023-05-22T07:49:53;99628.13;;;42.86;27.49
66560;BME280;53413;49.878;8.142;2023-05-22T07:52:19;99622.97;;;43.14;26.45
66560;BME280;53413;49.878;8.142;2023-05-22T07:54:47;99622.47;;;43.12;26.28
66560;BME280;53413;49.878;8.142;2023-05-22T07:57:12;99627.28;;;42.86;26.53
66560;BME280;53413;49.878;8.142;2023-05-22T07:59:38;99630.97;;;42.60;26.82
66560;BME280;53413;49.878;8.142;2023-05-22T08:02:03;99624.44;;;42.25;27.22
66560;BME280;53413;49.878;8.142;2023-05-22T08:04:29;99627.53;;;41.62;27.62
66560;BME280;53413;49.878;8.142;2023-05-22T08:06:54;99630.78;;;41.38;28.37
66560;BME280;53413;49.878;8.142;2023-05-22T08:09:19;99629.94;;;41.22;28.10
66560;BME280;53413;49.878;8.142;2023-05-22T08:11:45;99623.81;;;40.99;28.19
66560;BME280;53413;49.878;8.142;2023-05-22T08:14:11;99629.53;;;40.77;29.03
66560;BME280;53413;49.878;8.142;2023-05-22T08:16:39;99633.50;;;41.07;28.91
66560;BME280;53413;49.878;8.142;2023-05-22T08:19:05;99632.16;;;41.30;28.47
66560;BME280;53413;49.878;8.142;2023-05-22T08:21:31;99634.34;;;41.07;28.14
66560;BME280;53413;49.878;8.142;2023-05-22T08:24:01;99636.66;;;40.78;28.60
66560;BME280;53413;49.878;8.142;2023-05-22T08:26:26;99641.31;;;40.72;29.05
66560;BME280;53413;49.878;8.142;2023-05-22T08:28:52;99639.75;;;40.97;28.64
66560;BME280;53413;49.878;8.142;2023-05-22T08:31:17;99634.09;;;41.24;28.87
66560;BME280;53413;49.878;8.142;2023-05-22T08:33:43;99633.88;;;41.52;28.05
66560;BME280;53413;49.878;8.142;2023-05-22T08:36:08;99631.13;;;41.67;28.21
66560;BME280;53413;49.878;8.142;2023-05-22T08:38:34;99635.97;;;42.43;27.29
66560;BME280;53413;49.878;8.142;2023-05-22T08:40:59;99639.44;;;43.70;26.17
66560;BME280;53413;49.878;8.142;2023-05-22T08:43:26;99632.97;;;44.14;25.66
66560;BME280;53413;49.878;8.142;2023-05-22T08:46:10;99624.38;;;44.16;25.47
66560;BME280;53413;49.878;8.142;2023-05-22T08:48:36;99634.31;;;43.52;25.81
66560;BME280;53413;49.878;8.142;2023-05-22T08:51:06;99634.75;;;42.80;26.62
66560;BME280;53413;49.878;8.142;2023-05-22T08:53:35;99633.19;;;41.03;27.94
66560;BME280;53413;49.878;8.142;2023-05-22T08:56:03;99625.53;;;41.05;28.24
66560;BME280;53413;49.878;8.142;2023-05-22T08:58:31;99622.56;;;42.05;27.61
66560;BME280;53413;49.878;8.142;2023-05-22T09:01:01;99631.28;;;43.09;26.73
66560;BME280;53413;49.878;8.142;2023-05-22T09:03:29;99632.91;;;44.19;25.72
66560;BME280;53413;49.878;8.142;2023-05-22T09:06:00;99627.97;;;44.65;24.73
66560;BME280;53413;49.878;8.142;2023-05-22T09:08:27;99629.69;;;44.61;25.24
66560;BME280;53413;49.878;8.142;2023-05-22T09:10:55;99641.47;;;43.53;25.64
66560;BME280;53413;49.878;8.142;2023-05-22T09:15:50;99629.13;;;42.30;27.02
66560;BME280;53413;49.878;8.142;2023-05-22T09:18:15;99629.72;;;41.91;27.33
66560;BME280;53413;49.878;8.142;2023-05-22T09:20:41;99638.41;;;41.05;28.29
66560;BME280;53413;49.878;8.142;2023-05-22T09:23:13;99640.72;;;39.79;29.64
66560;BME280;53413;49.878;8.142;2023-05-22T09:25:41;99637.75;;;38.37;30.90
66560;BME280;53413;49.878;8.142;2023-05-22T09:28:07;99624.47;;;37.43;32.00
66560;BME280;53413;49.878;8.142;2023-05-22T09:30:33;99628.81;;;36.75;33.37
66560;BME280;53413;49.878;8.142;2023-05-22T09:33:00;99633.81;;;36.42;33.82
66560;BME280;53413;49.878;8.142;2023-05-22T09:35:25;99634.56;;;36.38;33.75
66560;BME280;53413;49.878;8.142;2023-05-22T09:37:53;99629.13;;;36.02;34.34
66560;BME280;53413;49.878;8.142;2023-05-22T09:40:19;99623.53;;;35.97;34.39
66560;BME280;53413;49.878;8.142;2023-05-22T09:42:44;99630.59;;;35.86;35.03
66560;BME280;53413;49.878;8.142;2023-05-22T09:45:10;99631.69;;;35.42;35.64
66560;BME280;53413;49.878;8.142;2023-05-22T09:47:35;99636.06;;;35.13;36.37
66560;BME280;53413;49.878;8.142;2023-05-22T09:50:04;99637.81;;;34.51;37.13
66560;BME280;53413;49.878;8.142;2023-05-22T09:52:35;99635.41;;;34.18;37.69
66560;BME280;53413;49.878;8.142;2023-05-22T09:55:05;99635.72;;;33.77;38.18
66560;BME280;53413;49.878;8.142;2023-05-22T09:57:34;99634.50;;;33.41;38.48
66560;BME280;53413;49.878;8.142;2023-05-22T10:00:06;99631.09;;;33.07;38.72
66560;BME280;53413;49.878;8.142;2023-05-22T10:02:34;99621.31;;;33.77;38.00
66560;BME280;53413;49.878;8.142;2023-05-22T10:05:05;99631.63;;;35.00;37.17
66560;BME280;53413;49.878;8.142;2023-05-22T10:07:35;99627.44;;;36.60;34.65
66560;BME280;53413;49.878;8.142;2023-05-22T10:10:08;99629.78;;;37.67;33.04
66560;BME280;53413;49.878;8.142;2023-05-22T10:12:40;99617.09;;;38.12;32.36
66560;BME280;53413;49.878;8.142;2023-05-22T10:15:09;99619.84;;;38.74;31.89
66560;BME280;53413;49.878;8.142;2023-05-22T10:17:35;99616.25;;;38.12;32.73
66560;BME280;53413;49.878;8.142;2023-05-22T10:20:02;99616.69;;;37.23;33.68
66560;BME280;53413;49.878;8.142;2023-05-22T10:22:34;99616.97;;;36.69;34.35
66560;BME280;53413;49.878;8.142;2023-05-22T10:25:01;99611.44;;;36.04;34.77
66560;BME280;53413;49.878;8.142;2023-05-22T10:27:27;99612.06;;;35.22;35.63
66560;BME280;53413;49.878;8.142;2023-05-22T10:32:40;99607.22;;;34.56;37.04
66560;BME280;53413;49.878;8.142;2023-05-22T10:40:36;99595.41;;;34.00;37.65
66560;BME280;53413;49.878;8.142;2023-05-22T10:43:02;99596.91;;;33.96;38.04
66560;BME280;53413;49.878;8.142;2023-05-22T10:45:30;99593.56;;;33.94;37.70
66560;BME280;53413;49.878;8.142;2023-05-22T10:48:10;99589.25;;;33.86;38.54
66560;BME280;53413;49.878;8.142;2023-05-22T10:50:37;99593.91;;;33.53;40.58
66560;BME280;53413;49.878;8.142;2023-05-22T10:53:22;99596.47;;;33.41;40.17
66560;BME280;53413;49.878;8.142;2023-05-22T10:55:57;99584.88;;;33.21;40.64
66560;BME280;53413;49.878;8.142;2023-05-22T10:58:28;99586.88;;;33.00;41.40
66560;BME280;53413;49.878;8.142;2023-05-22T11:01:16;99580.69;;;32.73;40.81
66560;BME280;53413;49.878;8.142;2023-05-22T11:11:43;99573.78;;;31.91;43.36
66560;BME280;53413;49.878;8.142;2023-05-22T11:14:10;99571.47;;;31.88;44.15
66560;BME280;53413;49.878;8.142;2023-05-22T11:16:37;99576.72;;;31.83;42.91
66560;BME280;53413;49.878;8.142;2023-05-22T11:19:06;99564.00;;;31.76;43.77
66560;BME280;53413;49.878;8.142;2023-05-22T11:21:45;99566.50;;;31.78;44.14
66560;BME280;53413;49.878;8.142;2023-05-22T11:24:11;99560.06;;;31.79;44.38
66560;BME280;53413;49.878;8.142;2023-05-22T11:26:40;99561.91;;;31.85;44.23
66560;BME280;53413;49.878;8.142;2023-05-22T11:29:06;99568.38;;;31.84;44.56
66560;BME280;53413;49.878;8.142;2023-05-22T11:31:32;99559.59;;;31.96;43.96
66560;BME280;53413;49.878;8.142;2023-05-22T11:33:59;99561.47;;;32.08;43.29
66560;BME280;53413;49.878;8.142;2023-05-22T11:36:26;99557.50;;;32.11;44.01
66560;BME280;53413;49.878;8.142;2023-05-22T11:38:56;99551.22;;;32.31;44.15
66560;BME280;53413;49.878;8.142;2023-05-22T11:41:21;99554.78;;;32.24;43.52
66560;BME280;53413;49.878;8.142;2023-05-22T11:43:47;99549.34;;;32.18;44.44
66560;BME280;53413;49.878;8.142;2023-05-22T11:46:13;99549.38;;;32.04;44.10
66560;BME280;53413;49.878;8.142;2023-05-22T11:48:40;99546.91;;;31.83;43.85
66560;BME280;53413;49.878;8.142;2023-05-22T11:51:07;99541.91;;;31.80;44.56
66560;BME280;53413;49.878;8.142;2023-05-22T11:53:33;99545.25;;;31.82;44.84
66560;BME280;53413;49.878;8.142;2023-05-22T11:56:02;99536.06;;;31.83;45.59
66560;BME280;53413;49.878;8.142;2023-05-22T11:58:29;99534.63;;;31.73;45.31
66560;BME280;53413;49.878;8.142;2023-05-22T12:01:05;99540.66;;;31.48;46.73
66560;BME280;53413;49.878;8.142;2023-05-22T12:03:31;99540.44;;;31.50;45.84
66560;BME280;53413;49.878;8.142;2023-05-22T12:05:57;99536.03;;;31.36;45.49
66560;BME280;53413;49.878;8.142;2023-05-22T12:08:23;99538.75;;;31.36;46.27
66560;BME280;53413;49.878;8.142;2023-05-22T12:10:49;99527.91;;;31.42;46.12
66560;BME280;53413;49.878;8.142;2023-05-22T12:13:25;99522.91;;;31.46;47.38
66560;BME280;53413;49.878;8.142;2023-05-22T12:15:57;99528.78;;;31.56;46.87
66560;BME280;53413;49.878;8.142;2023-05-22T12:18:34;99522.53;;;31.76;47.43
66560;BME280;53413;49.878;8.142;2023-05-22T12:21:00;99523.78;;;31.87;46.07
66560;BME280;53413;49.878;8.142;2023-05-22T12:23:26;99524.81;;;31.92;47.26
66560;BME280;53413;49.878;8.142;2023-05-22T12:26:07;99524.38;;;32.02;46.45
66560;BME280;53413;49.878;8.142;2023-05-22T12:28:33;99520.59;;;32.10;45.97
66560;BME280;53413;49.878;8.142;2023-05-22T12:30:58;99527.69;;;32.24;46.39
66560;BME280;53413;49.878;8.142;2023-05-22T12:33:27;99522.66;;;32.35;45.15
66560;BME280;53413;49.878;8.142;2023-05-22T12:35:53;99524.94;;;32.38;45.38
66560;BME280;53413;49.878;8.142;2023-05-22T12:38:23;99518.66;;;32.37;44.69
66560;BME280;53413;49.878;8.142;2023-05-22T12:40:49;99510.97;;;32.41;45.55
66560;BME280;53413;49.878;8.142;2023-05-22T12:43:15;99513.19;;;32.51;45.49
66560;BME280;53413;49.878;8.142;2023-05-22T12:45:40;99511.44;;;32.70;44.76
66560;BME280;53413;49.878;8.142;2023-05-22T12:48:06;99509.53;;;32.77;44.43
66560;BME280;53413;49.878;8.142;2023-05-22T12:50:32;99506.22;;;32.75;43.83
66560;BME280;53413;49.878;8.142;2023-05-22T12:52:58;99512.44;;;32.82;43.52
66560;BME280;53413;49.878;8.142;2023-05-22T12:55:23;99514.31;;;32.89;43.44
66560;BME280;53413;49.878;8.142;2023-05-22T12:57:48;99517.75;;;32.64;44.35
66560;BME280;53413;49.878;8.142;2023-05-22T13:00:14;99523.50;;;32.35;44.21
66560;BME280;53413;49.878;8.142;2023-05-22T13:02:39;99522.25;;;32.24;42.54
66560;BME280;53413;49.878;8.142;2023-05-22T13:05:05;99522.25;;;32.18;43.57
66560;BME280;53413;49.878;8.142;2023-05-22T13:07:30;99515.81;;;32.26;43.12
66560;BME280;53413;49.878;8.142;2023-05-22T13:09:56;99517.22;;;32.21;41.83
66560;BME280;53413;49.878;8.142;2023-05-22T13:12:21;99521.66;;;32.02;41.71
66560;BME280;53413;49.878;8.142;2023-05-22T13:14:47;99516.03;;;32.11;43.36
66560;BME280;53413;49.878;8.142;2023-05-22T13:17:12;99513.72;;;32.14;43.90
66560;BME280;53413;49.878;8.142;2023-05-22T13:19:38;99506.81;;;32.12;42.88
66560;BME280;53413;49.878;8.142;2023-05-22T13:22:03;99505.63;;;32.01;43.50
66560;BME280;53413;49.878;8.142;2023-05-22T13:24:29;99506.25;;;31.96;44.28
66560;BME280;53413;49.878;8.142;2023-05-22T13:26:54;99503.16;;;31.92;44.45
66560;BME280;53413;49.878;8.142;2023-05-22T13:29:19;99496.47;;;31.88;43.73
66560;BME280;53413;49.878;8.142;2023-05-22T13:31:48;99498.56;;;31.86;44.14